sensor_id;sensor_type;location;lat;lon;timestamp;temperature;humidity
3492;DHT22;1760;52.480;13.422;2022-08-07T00:01:13;18.40;83.80
3492;DHT22;1760;52.480;13.422;2022-08-07T00:03:39;18.40;84.40
3492;DHT22;1760;52.480;13.422;2022-08-07T00:06:07;18.40;84.90
3492;DHT22;1760;52.480;13.422;2022-08-07T00:08:34;18.40;85.30
3492;DHT22;1760;52.480;13.422;2022-08-07T00:11:01;18.40;85.70
3492;DHT22;1760;52.480;13.422;2022-08-07T00:13:28;18.40;86.10
3492;DHT22;1760;52.480;13.422;2022-08-07T00:15:57;18.40;86.40
3492;DHT22;1760;52.480;13.422;2022-08-07T00:18:25;18.30;87.00
3492;DHT22;1760;52.480;13.422;2022-08-07T00:20:53;18.30;87.60
3492;DHT22;1760;52.480;13.422;2022-08-07T00:23:21;18.30;88.20
3492;DHT22;1760;52.480;13.422;2022-08-07T00:25:48;18.30;88.80
3492;DHT22;1760;52.480;13.422;2022-08-07T00:28:15;18.20;89.20
3492;DHT22;1760;52.480;13.422;2022-08-07T00:30:42;18.20;89.80
3492;DHT22;1760;52.480;13.422;2022-08-07T00:33:11;18.20;90.00
3492;DHT22;1760;52.480;13.422;2022-08-07T00:35:37;18.20;90.40
3492;DHT22;1760;52.480;13.422;2022-08-07T00:38:04;18.20;90.70
3492;DHT22;1760;52.480;13.422;2022-08-07T00:40:34;18.20;90.70
3492;DHT22;1760;52.480;13.422;2022-08-07T00:43:01;18.10;91.00
3492;DHT22;1760;52.480;13.422;2022-08-07T00:45:28;18.10;91.40
3492;DHT22;1760;52.480;13.422;2022-08-07T00:47:55;18.10;91.50
3492;DHT22;1760;52.480;13.422;2022-08-07T00:50:23;18.00;91.80
3492;DHT22;1760;52.480;13.422;2022-08-07T00:52:50;18.00;92.20
3492;DHT22;1760;52.480;13.422;2022-08-07T00:55:17;18.00;92.50
3492;DHT22;1760;52.480;13.422;2022-08-07T00:57:44;18.00;92.80
3492;DHT22;1760;52.480;13.422;2022-08-07T01:00:11;17.90;93.00
3492;DHT22;1760;52.480;13.422;2022-08-07T01:02:40;17.90;93.20
3492;DHT22;1760;52.480;13.422;2022-08-07T01:05:09;17.90;93.50
3492;DHT22;1760;52.480;13.422;2022-08-07T01:07:38;17.80;93.70
3492;DHT22;1760;52.480;13.422;2022-08-07T01:10:05;17.80;94.00
3492;DHT22;1760;52.480;13.422;2022-08-07T01:12:33;17.80;94.30
3492;DHT22;1760;52.480;13.422;2022-08-07T01:15:00;17.80;94.60
3492;DHT22;1760;52.480;13.422;2022-08-07T01:17:27;17.80;94.90
3492;DHT22;1760;52.480;13.422;2022-08-07T01:20:04;17.80;95.20
3492;DHT22;1760;52.480;13.422;2022-08-07T01:22:33;17.80;95.60
3492;DHT22;1760;52.480;13.422;2022-08-07T01:25:01;17.70;95.80
3492;DHT22;1760;52.480;13.422;2022-08-07T01:27:28;17.70;96.20
3492;DHT22;1760;52.480;13.422;2022-08-07T01:29:55;17.80;96.40
3492;DHT22;1760;52.480;13.422;2022-08-07T01:32:22;17.70;96.80
3492;DHT22;1760;52.480;13.422;2022-08-07T01:34:49;17.70;97.00
3492;DHT22;1760;52.480;13.422;2022-08-07T01:37:17;17.70;97.60
3492;DHT22;1760;52.480;13.422;2022-08-07T01:39:45;17.60;97.70
3492;DHT22;1760;52.480;13.422;2022-08-07T01:42:13;17.60;98.10
3492;DHT22;1760;52.480;13.422;2022-08-07T01:44:41;17.60;98.30
3492;DHT22;1760;52.480;13.422;2022-08-07T01:47:08;17.60;98.60
3492;DHT22;1760;52.480;13.422;2022-08-07T01:49:38;17.60;98.90
3492;DHT22;1760;52.480;13.422;2022-08-07T01:52:06;17.60;99.00
3492;DHT22;1760;52.480;13.422;2022-08-07T01:54:36;17.50;99.20
3492;DHT22;1760;52.480;13.422;2022-08-07T01:57:11;17.50;99.50
3492;DHT22;1760;52.480;13.422;2022-08-07T01:59:43;17.50;99.70
3492;DHT22;1760;52.480;13.422;2022-08-07T02:02:16;17.50;99.90
3492;DHT22;1760;52.480;13.422;2022-08-07T02:04:50;17.50;99.90
3492;DHT22;1760;52.480;13.422;2022-08-07T02:07:21;17.50;99.90
3492;DHT22;1760;52.480;13.422;2022-08-07T02:09:50;17.40;99.90
3492;DHT22;1760;52.480;13.422;2022-08-07T02:12:21;17.40;99.90
3492;DHT22;1760;52.480;13.422;2022-08-07T02:14:51;17.40;99.90
3492;DHT22;1760;52.480;13.422;2022-08-07T02:17:19;17.40;99.90
3492;DHT22;1760;52.480;13.422;2022-08-07T02:19:50;17.40;99.90
3492;DHT22;1760;52.480;13.422;2022-08-07T02:22:19;17.40;99.90
3492;DHT22;1760;52.480;13.422;2022-08-07T02:24:49;17.40;99.90
3492;DHT22;1760;52.480;13.422;2022-08-07T02:27:21;17.40;99.90
3492;DHT22;1760;52.480;13.422;2022-08-07T02:29:50;17.40;99.90
3492;DHT22;1760;52.480;13.422;2022-08-07T02:32:18;17.30;99.90
3492;DHT22;1760;52.480;13.422;2022-08-07T02:34:47;17.30;99.90
3492;DHT22;1760;52.480;13.422;2022-08-07T02:37:15;17.30;99.90
3492;DHT22;1760;52.480;13.422;2022-08-07T02:39:44;17.30;99.90
3492;DHT22;1760;52.480;13.422;2022-08-07T02:42:11;17.30;99.90
3492;DHT22;1760;52.480;13.422;2022-08-07T02:44:43;17.20;99.90
3492;DHT22;1760;52.480;13.422;2022-08-07T02:47:11;17.20;99.90
3492;DHT22;1760;52.480;13.422;2022-08-07T02:49:40;17.20;99.90
3492;DHT22;1760;52.480;13.422;2022-08-07T02:52:10;17.10;99.90
3492;DHT22;1760;52.480;13.422;2022-08-07T02:54:40;17.10;99.90
3492;DHT22;1760;52.480;13.422;2022-08-07T02:57:13;17.10;99.90
3492;DHT22;1760;52.480;13.422;2022-08-07T02:59:43;17.00;99.90
3492;DHT22;1760;52.480;13.422;2022-08-07T03:02:15;17.00;99.90
3492;DHT22;1760;52.480;13.422;2022-08-07T03:04:44;17.00;99.90
3492;DHT22;1760;52.480;13.422;2022-08-07T03:07:12;17.00;99.90
3492;DHT22;1760;52.480;13.422;2022-08-07T03:09:42;17.00;99.90
3492;DHT22;1760;52.480;13.422;2022-08-07T03:12:10;17.00;99.90
3492;DHT22;1760;52.480;13.422;2022-08-07T03:14:38;17.00;99.90
3492;DHT22;1760;52.480;13.422;2022-08-07T03:17:06;17.00;99.90
3492;DHT22;1760;52.480;13.422;2022-08-07T03:19:33;17.00;99.90
3492;DHT22;1760;52.480;13.422;2022-08-07T03:22:03;17.00;99.90
3492;DHT22;1760;52.480;13.422;2022-08-07T03:24:30;16.90;99.90
3492;DHT22;1760;52.480;13.422;2022-08-07T03:26:59;16.90;99.90
3492;DHT22;1760;52.480;13.422;2022-08-07T03:29:32;17.00;99.90
3492;DHT22;1760;52.480;13.422;2022-08-07T03:32:02;16.90;99.90
3492;DHT22;1760;52.480;13.422;2022-08-07T03:34:32;16.90;99.90
3492;DHT22;1760;52.480;13.422;2022-08-07T03:37:00;16.90;99.90
3492;DHT22;1760;52.480;13.422;2022-08-07T03:39:28;16.90;99.90
3492;DHT22;1760;52.480;13.422;2022-08-07T03:41:57;16.80;99.90
3492;DHT22;1760;52.480;13.422;2022-08-07T03:44:25;16.80;99.90
3492;DHT22;1760;52.480;13.422;2022-08-07T03:46:52;16.80;99.90
3492;DHT22;1760;52.480;13.422;2022-08-07T03:49:22;16.80;99.90
3492;DHT22;1760;52.480;13.422;2022-08-07T03:51:51;16.80;99.90
3492;DHT22;1760;52.480;13.422;2022-08-07T03:54:19;16.80;99.90
3492;DHT22;1760;52.480;13.422;2022-08-07T03:56:46;16.80;99.90
3492;DHT22;1760;52.480;13.422;2022-08-07T03:59:13;16.90;99.90
3492;DHT22;1760;52.480;13.422;2022-08-07T04:01:43;16.90;99.90
3492;DHT22;1760;52.480;13.422;2022-08-07T04:04:11;16.90;99.90
3492;DHT22;1760;52.480;13.422;2022-08-07T04:06:40;17.00;99.90
3492;DHT22;1760;52.480;13.422;2022-08-07T04:09:10;17.00;99.90
3492;DHT22;1760;52.480;13.422;2022-08-07T04:11:38;17.00;99.90
3492;DHT22;1760;52.480;13.422;2022-08-07T04:14:07;17.00;99.90
3492;DHT22;1760;52.480;13.422;2022-08-07T04:16:34;17.10;99.90
3492;DHT22;1760;52.480;13.422;2022-08-07T04:19:02;17.10;99.90
3492;DHT22;1760;52.480;13.422;2022-08-07T04:21:29;17.10;99.90
3492;DHT22;1760;52.480;13.422;2022-08-07T04:23:57;17.10;99.90
3492;DHT22;1760;52.480;13.422;2022-08-07T04:26:26;17.10;99.90
3492;DHT22;1760;52.480;13.422;2022-08-07T04:28:52;17.10;99.90
3492;DHT22;1760;52.480;13.422;2022-08-07T04:31:22;17.10;99.90
3492;DHT22;1760;52.480;13.422;2022-08-07T04:33:51;17.20;99.90
3492;DHT22;1760;52.480;13.422;2022-08-07T04:36:18;17.20;99.90
3492;DHT22;1760;52.480;13.422;2022-08-07T04:38:45;17.20;99.90
3492;DHT22;1760;52.480;13.422;2022-08-07T04:41:12;17.20;99.90
3492;DHT22;1760;52.480;13.422;2022-08-07T04:43:41;17.20;99.90
3492;DHT22;1760;52.480;13.422;2022-08-07T04:46:12;17.20;99.90
3492;DHT22;1760;52.480;13.422;2022-08-07T04:48:46;17.30;99.90
3492;DHT22;1760;52.480;13.422;2022-08-07T04:51:22;17.30;99.90
3492;DHT22;1760;52.480;13.422;2022-08-07T04:53:57;17.30;99.90
3492;DHT22;1760;52.480;13.422;2022-08-07T04:56:28;17.30;99.90
3492;DHT22;1760;52.480;13.422;2022-08-07T04:59:03;17.40;99.90
3492;DHT22;1760;52.480;13.422;2022-08-07T05:01:39;17.40;99.90
3492;DHT22;1760;52.480;13.422;2022-08-07T05:04:09;17.40;99.90
3492;DHT22;1760;52.480;13.422;2022-08-07T05:06:42;17.40;99.90
3492;DHT22;1760;52.480;13.422;2022-08-07T05:09:19;17.40;99.90
3492;DHT22;1760;52.480;13.422;2022-08-07T05:11:51;17.40;99.90
3492;DHT22;1760;52.480;13.422;2022-08-07T05:14:24;17.40;99.90
3492;DHT22;1760;52.480;13.422;2022-08-07T05:16:56;17.40;99.90
3492;DHT22;1760;52.480;13.422;2022-08-07T05:19:25;17.50;99.90
3492;DHT22;1760;52.480;13.422;2022-08-07T05:21:58;17.50;99.90
3492;DHT22;1760;52.480;13.422;2022-08-07T05:24:26;17.60;99.90
3492;DHT22;1760;52.480;13.422;2022-08-07T05:26:56;17.60;99.90
3492;DHT22;1760;52.480;13.422;2022-08-07T05:29:25;17.60;99.90
3492;DHT22;1760;52.480;13.422;2022-08-07T05:31:53;17.60;99.90
3492;DHT22;1760;52.480;13.422;2022-08-07T05:34:23;17.60;99.90
3492;DHT22;1760;52.480;13.422;2022-08-07T05:36:53;17.70;99.90
3492;DHT22;1760;52.480;13.422;2022-08-07T05:39:21;17.70;99.90
3492;DHT22;1760;52.480;13.422;2022-08-07T05:41:49;17.80;99.90
3492;DHT22;1760;52.480;13.422;2022-08-07T05:44:18;17.90;99.90
3492;DHT22;1760;52.480;13.422;2022-08-07T05:46:48;17.90;99.90
3492;DHT22;1760;52.480;13.422;2022-08-07T05:49:15;18.00;99.90
3492;DHT22;1760;52.480;13.422;2022-08-07T05:51:44;18.00;99.90
3492;DHT22;1760;52.480;13.422;2022-08-07T05:54:11;18.10;99.90
3492;DHT22;1760;52.480;13.422;2022-08-07T05:56:39;18.10;99.90
3492;DHT22;1760;52.480;13.422;2022-08-07T05:59:11;18.20;99.90
3492;DHT22;1760;52.480;13.422;2022-08-07T06:01:38;18.20;99.90
3492;DHT22;1760;52.480;13.422;2022-08-07T06:04:08;18.30;99.90
3492;DHT22;1760;52.480;13.422;2022-08-07T06:06:35;18.40;99.90
3492;DHT22;1760;52.480;13.422;2022-08-07T06:09:03;18.40;99.90
3492;DHT22;1760;52.480;13.422;2022-08-07T06:11:31;18.50;99.90
3492;DHT22;1760;52.480;13.422;2022-08-07T06:13:58;18.60;99.90
3492;DHT22;1760;52.480;13.422;2022-08-07T06:16:31;18.60;99.90
3492;DHT22;1760;52.480;13.422;2022-08-07T06:18:59;18.70;99.90
3492;DHT22;1760;52.480;13.422;2022-08-07T06:21:28;18.70;99.90
3492;DHT22;1760;52.480;13.422;2022-08-07T06:23:55;18.80;99.10
3492;DHT22;1760;52.480;13.422;2022-08-07T06:26:23;18.90;98.90
3492;DHT22;1760;52.480;13.422;2022-08-07T06:28:51;19.00;98.80
3492;DHT22;1760;52.480;13.422;2022-08-07T06:31:19;19.00;98.60
3492;DHT22;1760;52.480;13.422;2022-08-07T06:33:46;19.10;98.70
3492;DHT22;1760;52.480;13.422;2022-08-07T06:36:14;19.10;98.50
3492;DHT22;1760;52.480;13.422;2022-08-07T06:38:42;19.20;98.20
3492;DHT22;1760;52.480;13.422;2022-08-07T06:41:13;19.30;97.80
3492;DHT22;1760;52.480;13.422;2022-08-07T06:43:42;19.40;97.30
3492;DHT22;1760;52.480;13.422;2022-08-07T06:46:10;19.50;96.20
3492;DHT22;1760;52.480;13.422;2022-08-07T06:48:37;19.60;96.80
3492;DHT22;1760;52.480;13.422;2022-08-07T06:51:07;19.70;95.90
3492;DHT22;1760;52.480;13.422;2022-08-07T06:53:38;19.80;95.60
3492;DHT22;1760;52.480;13.422;2022-08-07T06:56:09;19.80;95.20
3492;DHT22;1760;52.480;13.422;2022-08-07T06:58:38;19.90;94.90
3492;DHT22;1760;52.480;13.422;2022-08-07T07:01:07;20.00;94.30
3492;DHT22;1760;52.480;13.422;2022-08-07T07:03:37;20.00;94.40
3492;DHT22;1760;52.480;13.422;2022-08-07T07:06:06;20.00;93.80
3492;DHT22;1760;52.480;13.422;2022-08-07T07:08:34;20.10;93.50
3492;DHT22;1760;52.480;13.422;2022-08-07T07:11:02;20.20;93.40
3492;DHT22;1760;52.480;13.422;2022-08-07T07:13:34;20.30;92.50
3492;DHT22;1760;52.480;13.422;2022-08-07T07:16:06;20.30;92.80
3492;DHT22;1760;52.480;13.422;2022-08-07T07:18:38;20.40;92.50
3492;DHT22;1760;52.480;13.422;2022-08-07T07:21:09;20.50;91.80
3492;DHT22;1760;52.480;13.422;2022-08-07T07:23:37;20.60;91.60
3492;DHT22;1760;52.480;13.422;2022-08-07T07:26:08;20.80;92.20
3492;DHT22;1760;52.480;13.422;2022-08-07T07:28:41;21.00;91.20
3492;DHT22;1760;52.480;13.422;2022-08-07T07:31:13;21.20;91.00
3492;DHT22;1760;52.480;13.422;2022-08-07T07:33:42;21.30;90.10
3492;DHT22;1760;52.480;13.422;2022-08-07T07:36:10;21.30;86.80
3492;DHT22;1760;52.480;13.422;2022-08-07T07:38:38;21.40;88.30
3492;DHT22;1760;52.480;13.422;2022-08-07T07:41:08;21.50;87.40
3492;DHT22;1760;52.480;13.422;2022-08-07T07:43:40;21.70;85.90
3492;DHT22;1760;52.480;13.422;2022-08-07T07:46:08;21.90;86.90
3492;DHT22;1760;52.480;13.422;2022-08-07T07:48:36;22.10;86.60
3492;DHT22;1760;52.480;13.422;2022-08-07T07:51:05;22.40;84.20
3492;DHT22;1760;52.480;13.422;2022-08-07T07:53:35;23.00;81.40
3492;DHT22;1760;52.480;13.422;2022-08-07T07:56:04;24.50;77.80
3492;DHT22;1760;52.480;13.422;2022-08-07T07:58:35;26.50;69.90
3492;DHT22;1760;52.480;13.422;2022-08-07T08:01:06;28.40;60.60
3492;DHT22;1760;52.480;13.422;2022-08-07T08:03:35;30.10;54.40
3492;DHT22;1760;52.480;13.422;2022-08-07T08:06:03;31.50;49.60
3492;DHT22;1760;52.480;13.422;2022-08-07T08:08:30;32.10;46.90
3492;DHT22;1760;52.480;13.422;2022-08-07T08:10:58;33.40;45.60
3492;DHT22;1760;52.480;13.422;2022-08-07T08:13:26;34.80;42.50
3492;DHT22;1760;52.480;13.422;2022-08-07T08:15:56;35.90;40.40
3492;DHT22;1760;52.480;13.422;2022-08-07T08:18:28;36.60;38.00
3492;DHT22;1760;52.480;13.422;2022-08-07T08:20:56;37.10;36.30
3492;DHT22;1760;52.480;13.422;2022-08-07T08:23:25;37.10;35.70
3492;DHT22;1760;52.480;13.422;2022-08-07T08:26:11;37.50;35.30
3492;DHT22;1760;52.480;13.422;2022-08-07T08:28:58;37.80;34.10
3492;DHT22;1760;52.480;13.422;2022-08-07T08:31:28;38.10;33.70
3492;DHT22;1760;52.480;13.422;2022-08-07T08:34:00;38.20;32.90
3492;DHT22;1760;52.480;13.422;2022-08-07T08:36:31;37.60;33.10
3492;DHT22;1760;52.480;13.422;2022-08-07T08:39:00;37.00;33.30
3492;DHT22;1760;52.480;13.422;2022-08-07T08:41:33;36.40;34.10
3492;DHT22;1760;52.480;13.422;2022-08-07T08:44:07;36.20;33.80
3492;DHT22;1760;52.480;13.422;2022-08-07T08:46:41;35.90;33.90
3492;DHT22;1760;52.480;13.422;2022-08-07T08:49:19;35.40;34.40
3492;DHT22;1760;52.480;13.422;2022-08-07T08:51:54;34.50;34.80
3492;DHT22;1760;52.480;13.422;2022-08-07T08:54:27;33.00;36.30
3492;DHT22;1760;52.480;13.422;2022-08-07T08:56:57;32.80;37.50
3492;DHT22;1760;52.480;13.422;2022-08-07T08:59:28;33.20;37.20
3492;DHT22;1760;52.480;13.422;2022-08-07T09:02:04;33.90;36.30
3492;DHT22;1760;52.480;13.422;2022-08-07T09:04:42;34.10;35.60
3492;DHT22;1760;52.480;13.422;2022-08-07T09:07:15;34.20;36.00
3492;DHT22;1760;52.480;13.422;2022-08-07T09:09:54;34.30;35.50
3492;DHT22;1760;52.480;13.422;2022-08-07T09:12:33;34.00;35.40
3492;DHT22;1760;52.480;13.422;2022-08-07T09:15:12;34.20;35.70
3492;DHT22;1760;52.480;13.422;2022-08-07T09:17:47;34.30;35.40
3492;DHT22;1760;52.480;13.422;2022-08-07T09:20:29;34.60;35.30
3492;DHT22;1760;52.480;13.422;2022-08-07T09:23:05;34.80;34.60
3492;DHT22;1760;52.480;13.422;2022-08-07T09:25:38;35.10;33.90
3492;DHT22;1760;52.480;13.422;2022-08-07T09:28:10;35.50;34.20
3492;DHT22;1760;52.480;13.422;2022-08-07T09:30:50;35.70;33.60
3492;DHT22;1760;52.480;13.422;2022-08-07T09:33:38;35.70;33.50
3492;DHT22;1760;52.480;13.422;2022-08-07T09:36:13;35.70;33.40
3492;DHT22;1760;52.480;13.422;2022-08-07T09:38:45;35.50;33.10
3492;DHT22;1760;52.480;13.422;2022-08-07T09:41:24;35.50;33.80
3492;DHT22;1760;52.480;13.422;2022-08-07T09:44:00;35.50;33.30
3492;DHT22;1760;52.480;13.422;2022-08-07T09:46:38;35.70;33.50
3492;DHT22;1760;52.480;13.422;2022-08-07T09:49:17;35.90;33.10
3492;DHT22;1760;52.480;13.422;2022-08-07T09:51:58;36.30;32.80
3492;DHT22;1760;52.480;13.422;2022-08-07T09:54:32;36.30;32.20
3492;DHT22;1760;52.480;13.422;2022-08-07T10:00:10;35.70;32.70
3492;DHT22;1760;52.480;13.422;2022-08-07T10:03:02;35.00;32.90
3492;DHT22;1760;52.480;13.422;2022-08-07T10:05:50;33.60;34.60
3492;DHT22;1760;52.480;13.422;2022-08-07T10:08:46;32.60;35.90
3492;DHT22;1760;52.480;13.422;2022-08-07T10:11:31;32.00;36.60
3492;DHT22;1760;52.480;13.422;2022-08-07T10:14:11;32.10;37.20
3492;DHT22;1760;52.480;13.422;2022-08-07T10:16:58;32.20;37.00
3492;DHT22;1760;52.480;13.422;2022-08-07T10:19:39;32.50;36.80
3492;DHT22;1760;52.480;13.422;2022-08-07T10:22:27;33.10;36.30
3492;DHT22;1760;52.480;13.422;2022-08-07T10:25:12;33.50;35.40
3492;DHT22;1760;52.480;13.422;2022-08-07T10:27:55;33.80;36.20
3492;DHT22;1760;52.480;13.422;2022-08-07T10:30:29;34.10;35.10
3492;DHT22;1760;52.480;13.422;2022-08-07T10:33:11;34.10;34.90
3492;DHT22;1760;52.480;13.422;2022-08-07T10:35:52;34.10;34.90
3492;DHT22;1760;52.480;13.422;2022-08-07T10:38:34;34.00;35.20
3492;DHT22;1760;52.480;13.422;2022-08-07T10:41:07;34.10;34.40
3492;DHT22;1760;52.480;13.422;2022-08-07T10:43:41;34.20;34.30
3492;DHT22;1760;52.480;13.422;2022-08-07T10:46:12;33.10;34.80
3492;DHT22;1760;52.480;13.422;2022-08-07T10:48:44;31.70;36.40
3492;DHT22;1760;52.480;13.422;2022-08-07T10:51:20;30.60;37.60
3492;DHT22;1760;52.480;13.422;2022-08-07T10:53:53;29.50;39.30
3492;DHT22;1760;52.480;13.422;2022-08-07T10:56:29;28.50;39.80
3492;DHT22;1760;52.480;13.422;2022-08-07T10:59:08;27.90;40.80
3492;DHT22;1760;52.480;13.422;2022-08-07T11:01:43;27.30;41.80
3492;DHT22;1760;52.480;13.422;2022-08-07T11:04:19;26.80;42.40
3492;DHT22;1760;52.480;13.422;2022-08-07T11:06:58;26.40;42.90
3492;DHT22;1760;52.480;13.422;2022-08-07T11:09:30;26.20;43.90
3492;DHT22;1760;52.480;13.422;2022-08-07T11:12:01;26.00;44.10
3492;DHT22;1760;52.480;13.422;2022-08-07T11:14:38;25.90;44.40
3492;DHT22;1760;52.480;13.422;2022-08-07T11:17:12;26.00;44.70
3492;DHT22;1760;52.480;13.422;2022-08-07T11:19:47;26.50;43.90
3492;DHT22;1760;52.480;13.422;2022-08-07T11:22:20;26.90;44.30
3492;DHT22;1760;52.480;13.422;2022-08-07T11:24:57;27.30;43.60
3492;DHT22;1760;52.480;13.422;2022-08-07T11:27:47;27.60;42.50
3492;DHT22;1760;52.480;13.422;2022-08-07T11:30:18;27.80;43.50
3492;DHT22;1760;52.480;13.422;2022-08-07T11:32:50;28.10;42.00
3492;DHT22;1760;52.480;13.422;2022-08-07T11:35:21;28.50;41.60
3492;DHT22;1760;52.480;13.422;2022-08-07T11:38:07;28.60;41.70
3492;DHT22;1760;52.480;13.422;2022-08-07T11:40:43;28.80;41.60
3492;DHT22;1760;52.480;13.422;2022-08-07T11:43:18;28.80;40.40
3492;DHT22;1760;52.480;13.422;2022-08-07T11:46:00;28.50;40.20
3492;DHT22;1760;52.480;13.422;2022-08-07T11:48:45;28.50;41.00
3492;DHT22;1760;52.480;13.422;2022-08-07T11:51:29;28.50;40.60
3492;DHT22;1760;52.480;13.422;2022-08-07T11:57:11;28.40;41.40
3492;DHT22;1760;52.480;13.422;2022-08-07T12:00:15;28.10;41.30
3492;DHT22;1760;52.480;13.422;2022-08-07T12:03:13;28.00;41.50
3492;DHT22;1760;52.480;13.422;2022-08-07T12:05:52;28.10;41.00
3492;DHT22;1760;52.480;13.422;2022-08-07T12:08:28;28.00;41.20
3492;DHT22;1760;52.480;13.422;2022-08-07T12:10:58;27.80;41.70
3492;DHT22;1760;52.480;13.422;2022-08-07T12:13:28;27.70;41.80
3492;DHT22;1760;52.480;13.422;2022-08-07T12:16:02;27.80;42.10
3492;DHT22;1760;52.480;13.422;2022-08-07T12:18:35;27.80;42.00
3492;DHT22;1760;52.480;13.422;2022-08-07T12:21:15;27.90;42.20
3492;DHT22;1760;52.480;13.422;2022-08-07T12:23:49;27.90;42.40
3492;DHT22;1760;52.480;13.422;2022-08-07T12:26:25;28.20;42.30
3492;DHT22;1760;52.480;13.422;2022-08-07T12:29:02;28.40;41.90
3492;DHT22;1760;52.480;13.422;2022-08-07T12:31:36;28.50;41.00
3492;DHT22;1760;52.480;13.422;2022-08-07T12:34:05;28.50;41.00
3492;DHT22;1760;52.480;13.422;2022-08-07T12:36:34;28.40;40.80
3492;DHT22;1760;52.480;13.422;2022-08-07T12:39:03;28.50;41.00
3492;DHT22;1760;52.480;13.422;2022-08-07T12:41:33;28.50;40.60
3492;DHT22;1760;52.480;13.422;2022-08-07T12:44:04;28.60;41.60
3492;DHT22;1760;52.480;13.422;2022-08-07T12:46:45;28.50;40.60
3492;DHT22;1760;52.480;13.422;2022-08-07T12:49:21;28.30;41.10
3492;DHT22;1760;52.480;13.422;2022-08-07T12:51:59;28.10;40.90
3492;DHT22;1760;52.480;13.422;2022-08-07T12:54:31;27.80;41.10
3492;DHT22;1760;52.480;13.422;2022-08-07T12:57:01;27.50;41.50
3492;DHT22;1760;52.480;13.422;2022-08-07T12:59:32;27.20;41.90
3492;DHT22;1760;52.480;13.422;2022-08-07T13:02:10;27.10;42.00
3492;DHT22;1760;52.480;13.422;2022-08-07T13:04:45;27.00;42.30
3492;DHT22;1760;52.480;13.422;2022-08-07T13:07:21;26.90;43.00
3492;DHT22;1760;52.480;13.422;2022-08-07T13:10:10;26.70;43.20
3492;DHT22;1760;52.480;13.422;2022-08-07T13:13:02;26.50;43.10
3492;DHT22;1760;52.480;13.422;2022-08-07T13:15:42;26.50;43.90
3492;DHT22;1760;52.480;13.422;2022-08-07T13:18:23;26.40;44.50
3492;DHT22;1760;52.480;13.422;2022-08-07T13:20:58;26.50;44.40
3492;DHT22;1760;52.480;13.422;2022-08-07T13:23:37;26.50;43.80
3492;DHT22;1760;52.480;13.422;2022-08-07T13:26:14;26.30;43.40
3492;DHT22;1760;52.480;13.422;2022-08-07T13:28:45;26.30;44.40
3492;DHT22;1760;52.480;13.422;2022-08-07T13:31:18;26.20;44.30
3492;DHT22;1760;52.480;13.422;2022-08-07T13:33:50;26.10;44.30
3492;DHT22;1760;52.480;13.422;2022-08-07T13:36:23;26.00;44.60
3492;DHT22;1760;52.480;13.422;2022-08-07T13:38:59;25.80;44.60
3492;DHT22;1760;52.480;13.422;2022-08-07T13:41:33;25.60;44.80
3492;DHT22;1760;52.480;13.422;2022-08-07T13:44:02;25.70;44.70
3492;DHT22;1760;52.480;13.422;2022-08-07T13:46:34;25.80;44.40
3492;DHT22;1760;52.480;13.422;2022-08-07T13:49:05;26.00;44.70
3492;DHT22;1760;52.480;13.422;2022-08-07T13:51:34;26.20;44.20
3492;DHT22;1760;52.480;13.422;2022-08-07T13:54:06;26.40;44.30
3492;DHT22;1760;52.480;13.422;2022-08-07T13:56:35;26.60;43.50
3492;DHT22;1760;52.480;13.422;2022-08-07T13:59:06;26.70;43.40
3492;DHT22;1760;52.480;13.422;2022-08-07T14:01:36;26.80;44.20
3492;DHT22;1760;52.480;13.422;2022-08-07T14:04:09;27.00;43.30
3492;DHT22;1760;52.480;13.422;2022-08-07T14:06:41;27.00;42.50
3492;DHT22;1760;52.480;13.422;2022-08-07T14:09:15;26.80;44.00
3492;DHT22;1760;52.480;13.422;2022-08-07T14:11:45;27.00;43.50
3492;DHT22;1760;52.480;13.422;2022-08-07T14:14:14;27.00;43.10
3492;DHT22;1760;52.480;13.422;2022-08-07T14:16:45;27.00;43.80
3492;DHT22;1760;52.480;13.422;2022-08-07T14:19:16;27.00;42.40
3492;DHT22;1760;52.480;13.422;2022-08-07T14:21:48;27.10;43.40
3492;DHT22;1760;52.480;13.422;2022-08-07T14:24:21;27.20;43.30
3492;DHT22;1760;52.480;13.422;2022-08-07T14:26:56;27.40;42.40
3492;DHT22;1760;52.480;13.422;2022-08-07T14:29:26;27.40;42.00
3492;DHT22;1760;52.480;13.422;2022-08-07T14:31:58;27.40;43.00
3492;DHT22;1760;52.480;13.422;2022-08-07T14:34:30;27.50;42.30
3492;DHT22;1760;52.480;13.422;2022-08-07T14:36:59;27.50;42.50
3492;DHT22;1760;52.480;13.422;2022-08-07T14:39:27;27.50;44.90
3492;DHT22;1760;52.480;13.422;2022-08-07T14:41:56;27.50;41.70
3492;DHT22;1760;52.480;13.422;2022-08-07T14:44:24;27.50;42.20
3492;DHT22;1760;52.480;13.422;2022-08-07T14:46:54;27.50;42.00
3492;DHT22;1760;52.480;13.422;2022-08-07T14:49:23;27.70;41.50
3492;DHT22;1760;52.480;13.422;2022-08-07T14:51:55;27.60;41.80
3492;DHT22;1760;52.480;13.422;2022-08-07T14:54:23;27.50;42.50
3492;DHT22;1760;52.480;13.422;2022-08-07T14:56:55;27.60;42.50
3492;DHT22;1760;52.480;13.422;2022-08-07T14:59:24;27.50;42.00
3492;DHT22;1760;52.480;13.422;2022-08-07T15:01:53;27.50;42.30
3492;DHT22;1760;52.480;13.422;2022-08-07T15:04:22;27.50;42.30
3492;DHT22;1760;52.480;13.422;2022-08-07T15:06:51;27.60;43.10
3492;DHT22;1760;52.480;13.422;2022-08-07T15:09:20;27.70;42.20
3492;DHT22;1760;52.480;13.422;2022-08-07T15:11:53;27.70;42.40
3492;DHT22;1760;52.480;13.422;2022-08-07T15:14:23;27.80;42.40
3492;DHT22;1760;52.480;13.422;2022-08-07T15:16:55;27.80;42.10
3492;DHT22;1760;52.480;13.422;2022-08-07T15:19:27;27.90;42.00
3492;DHT22;1760;52.480;13.422;2022-08-07T15:21:56;28.00;41.90
3492;DHT22;1760;52.480;13.422;2022-08-07T15:24:29;28.00;41.70
3492;DHT22;1760;52.480;13.422;2022-08-07T15:27:04;27.90;41.60
3492;DHT22;1760;52.480;13.422;2022-08-07T15:29:34;27.90;41.80
3492;DHT22;1760;52.480;13.422;2022-08-07T15:32:02;27.80;41.90
3492;DHT22;1760;52.480;13.422;2022-08-07T15:34:34;27.60;42.00
3492;DHT22;1760;52.480;13.422;2022-08-07T15:37:02;27.50;42.20
3492;DHT22;1760;52.480;13.422;2022-08-07T15:39:35;27.50;42.50
3492;DHT22;1760;52.480;13.422;2022-08-07T15:42:06;27.50;42.40
3492;DHT22;1760;52.480;13.422;2022-08-07T15:44:44;27.40;42.60
3492;DHT22;1760;52.480;13.422;2022-08-07T15:47:12;27.50;42.10
3492;DHT22;1760;52.480;13.422;2022-08-07T15:49:42;27.40;42.20
3492;DHT22;1760;52.480;13.422;2022-08-07T15:52:11;27.30;42.40
3492;DHT22;1760;52.480;13.422;2022-08-07T15:54:41;27.10;43.00
3492;DHT22;1760;52.480;13.422;2022-08-07T15:57:11;26.90;42.90
3492;DHT22;1760;52.480;13.422;2022-08-07T15:59:41;26.70;42.90
3492;DHT22;1760;52.480;13.422;2022-08-07T16:02:13;26.50;43.30
3492;DHT22;1760;52.480;13.422;2022-08-07T16:04:47;26.30;43.10
3492;DHT22;1760;52.480;13.422;2022-08-07T16:07:15;26.20;43.70
3492;DHT22;1760;52.480;13.422;2022-08-07T16:09:48;26.00;44.00
3492;DHT22;1760;52.480;13.422;2022-08-07T16:12:22;25.90;43.70
3492;DHT22;1760;52.480;13.422;2022-08-07T16:15:00;25.90;44.00
3492;DHT22;1760;52.480;13.422;2022-08-07T16:17:42;25.90;43.70
3492;DHT22;1760;52.480;13.422;2022-08-07T16:20:28;25.90;43.70